Galveston Bay Weather

Located on Galveston Bay in Seabrook, Texas

Our Weather Station is currently down due to a lightning strike.  Expecting to be back online in June.  Please check back.  (webcam is operational)

Weather Links

Aviation Weather Information
GALVESTON, TX
Metar
KGLS 281452Z 09006KT 10SM SCT015 SCT075 27/24 A2992 RMK AO2 SLP130 T02720244 53002

14:52 UTC

Wind: 90° 6kt

Visibility: 10 SM

Sky: SCT 1500 ft

Temp: 27 deg C / 80.6 deg F

Dewpoint: 24 deg C / 75.2 deg F

Pressure: 29.92 inHg

TAF
KGLS 281348Z 2814/2912 15011KT P6SM VCSH SCT015 SCT035 FM281600 11011KT P6SM BKN035 FM290000 14011KT P6SM SCT250 FM290800 12007KT P6SM VCSH FEW018 SCT250
Pireps (5)
IAH UA /OV 4 WEST IAH/TM 1530/FL019/TP E145/SK BKN/RM BASES 019 BKN. TOPS 070, WITH NUMEROUS LAYERS BETWEEN
DWH UA /OV 3 MI WEST DWH/TM 1515/FL020/TP BE36/SK BKN018
DWH UA /OV DWH315010/TM 1458/FL030/TP C182/SK TOPS 030 CLEAR ABV
SGR UA /OV SGR/TM 1455/FL18/TP SR22/SK BASES18 TOPS30
KIAH UA /OV KIAH180002/TM 1353/FL015/TP E135/SK BKN010
Galveston Bay Weather Station © 2016